Time;durP1;ratioP1;P1;durP2;ratioP2;P2;SDS_P1;SDS_P2;PMS_P1;PMS_P2;Temp;Humidity;BMP_temperature;BMP_pressure;BME280_temperature;BME280_humidity;BME280_pressure;Samples;Min_cycle;Max_cycle;Signal;HPM_P1;HPM_P2
2022/07/31 00:01:04;;;;;;;;;;;21.80;48.70;;;;;;491878;240;1844;-50
2022/07/31 00:03:06;;;;;;;;;;;21.80;48.70;;;;;;491622;240;1160;-50
2022/07/31 00:05:07;;;;;;;;;;;21.80;48.70;;;;;;491855;240;1252;-50
2022/07/31 00:07:08;;;;;;;;;;;21.80;48.70;;;;;;491572;240;2121;-50
2022/07/31 00:09:10;;;;;;;;;;;21.80;48.70;;;;;;492078;240;1226;-50
2022/07/31 00:11:11;;;;;;;;;;;21.80;48.70;;;;;;492027;240;1122;-50
2022/07/31 00:13:13;;;;;;;;;;;21.80;48.70;;;;;;491568;240;1547;-50
2022/07/31 00:15:14;;;;;;;;;;;21.80;48.60;;;;;;491793;240;1024;-50
2022/07/31 00:17:15;;;;;;;;;;;21.80;48.70;;;;;;491578;240;1386;-50
2022/07/31 00:19:16;;;;;;;;;;;21.80;48.70;;;;;;492065;240;1096;-50
2022/07/31 00:21:18;;;;;;;;;;;21.80;48.70;;;;;;492095;240;1101;-50
2022/07/31 00:23:19;;;;;;;;;;;21.80;48.70;;;;;;492028;240;1408;-50
2022/07/31 00:25:21;;;;;;;;;;;21.80;48.60;;;;;;491681;240;1215;-50
2022/07/31 00:27:22;;;;;;;;;;;21.80;48.70;;;;;;491591;240;2145;-50
2022/07/31 00:29:23;;;;;;;;;;;21.80;48.70;;;;;;491629;240;1260;-50
2022/07/31 00:31:25;;;;;;;;;;;21.80;48.70;;;;;;491865;240;1218;-50
2022/07/31 00:33:26;;;;;;;;;;;21.80;48.70;;;;;;491652;240;1336;-50
2022/07/31 00:35:27;;;;;;;;;;;21.80;48.70;;;;;;491613;240;1170;-49
2022/07/31 00:37:29;;;;;;;;;;;21.80;48.70;;;;;;491971;240;1367;-50
2022/07/31 00:39:31;;;;;;;;;;;21.80;48.70;;;;;;491647;240;1054;-50
2022/07/31 00:41:31;;;;;;;;;;;21.80;48.70;;;;;;492102;240;1381;-50
2022/07/31 00:43:33;;;;;;;;;;;21.70;48.70;;;;;;491943;240;1313;-49
2022/07/31 00:45:34;;;;;;;;;;;21.80;48.70;;;;;;491604;240;1051;-50
2022/07/31 00:47:35;;;;;;;;;;;21.70;48.70;;;;;;491633;240;2191;-49
2022/07/31 00:49:37;;;;;;;;;;;21.80;48.70;;;;;;491652;240;1065;-50
2022/07/31 00:51:38;;;;;;;;;;;21.80;48.70;;;;;;491594;240;1216;-50
2022/07/31 00:53:39;;;;;;;;;;;21.80;48.70;;;;;;491607;240;1344;-50
2022/07/31 00:55:41;;;;;;;;;;;21.80;48.70;;;;;;491647;240;1120;-50
2022/07/31 00:57:42;;;;;;;;;;;21.80;48.70;;;;;;491642;240;1328;-50
2022/07/31 00:59:43;;;;;;;;;;;21.80;48.70;;;;;;491704;240;1213;-50
2022/07/31 01:01:45;;;;;;;;;;;21.80;48.80;;;;;;492037;240;1365;-49
2022/07/31 01:03:46;;;;;;;;;;;21.70;48.70;;;;;;491985;240;1369;-50
2022/07/31 01:05:47;;;;;;;;;;;21.70;48.70;;;;;;492109;240;1117;-50
2022/07/31 01:07:49;;;;;;;;;;;21.80;48.70;;;;;;492029;240;2188;-50
2022/07/31 01:09:52;;;;;;;;;;;21.80;48.80;;;;;;492063;240;2386;-50
2022/07/31 01:11:51;;;;;;;;;;;21.80;48.70;;;;;;491895;240;1840;-49
2022/07/31 01:13:53;;;;;;;;;;;21.80;48.70;;;;;;491911;240;1280;-50
2022/07/31 01:15:54;;;;;;;;;;;21.80;48.70;;;;;;491566;240;1092;-50
2022/07/31 01:17:55;;;;;;;;;;;21.80;48.70;;;;;;491594;240;1191;-50
2022/07/31 01:19:57;;;;;;;;;;;21.80;48.70;;;;;;491844;240;1146;-50
2022/07/31 01:21:58;;;;;;;;;;;21.80;48.70;;;;;;491671;240;1053;-50
2022/07/31 01:23:59;;;;;;;;;;;21.70;48.70;;;;;;492085;240;1021;-50
2022/07/31 01:26:01;;;;;;;;;;;21.70;48.70;;;;;;492106;240;1052;-50
2022/07/31 01:28:02;;;;;;;;;;;21.70;48.70;;;;;;491986;240;2184;-50
2022/07/31 01:30:03;;;;;;;;;;;21.70;48.70;;;;;;491685;240;1180;-50
2022/07/31 01:32:05;;;;;;;;;;;21.80;48.70;;;;;;492108;240;1087;-50
2022/07/31 01:34:07;;;;;;;;;;;21.80;48.70;;;;;;492078;240;996;-49
2022/07/31 01:36:07;;;;;;;;;;;21.70;48.70;;;;;;492059;240;1029;-50
2022/07/31 01:38:09;;;;;;;;;;;21.70;48.80;;;;;;491585;240;1139;-50
2022/07/31 01:40:10;;;;;;;;;;;21.70;48.70;;;;;;492097;240;1094;-50
2022/07/31 01:42:11;;;;;;;;;;;21.80;48.80;;;;;;491793;240;1139;-50
2022/07/31 01:44:13;;;;;;;;;;;21.80;48.80;;;;;;491624;240;1194;-50
2022/07/31 01:46:14;;;;;;;;;;;21.70;48.80;;;;;;492094;240;981;-50
2022/07/31 01:48:16;;;;;;;;;;;21.70;48.70;;;;;;491982;240;2117;-50
2022/07/31 01:50:17;;;;;;;;;;;21.70;48.70;;;;;;491666;240;1114;-50
2022/07/31 01:52:19;;;;;;;;;;;21.80;48.80;;;;;;491586;240;1040;-50
2022/07/31 01:54:20;;;;;;;;;;;21.70;48.70;;;;;;492086;240;1052;-50
2022/07/31 01:56:21;;;;;;;;;;;21.80;48.70;;;;;;491862;240;1080;-50
2022/07/31 01:58:23;;;;;;;;;;;21.80;48.70;;;;;;491661;240;1086;-50
2022/07/31 02:00:24;;;;;;;;;;;21.70;48.70;;;;;;491781;240;1224;-50
2022/07/31 02:02:25;;;;;;;;;;;21.80;48.80;;;;;;491899;240;1052;-50
2022/07/31 02:04:26;;;;;;;;;;;21.70;48.80;;;;;;491806;240;1120;-49
2022/07/31 02:06:28;;;;;;;;;;;21.80;48.70;;;;;;492022;240;1110;-50
2022/07/31 02:08:29;;;;;;;;;;;21.80;48.70;;;;;;492032;240;2359;-50
2022/07/31 02:10:31;;;;;;;;;;;21.80;48.70;;;;;;491932;240;1226;-50
2022/07/31 02:12:32;;;;;;;;;;;21.80;48.80;;;;;;491622;240;1301;-50
2022/07/31 02:14:33;;;;;;;;;;;21.80;48.80;;;;;;491953;240;1185;-50
2022/07/31 02:16:36;;;;;;;;;;;21.70;48.70;;;;;;491920;240;1340;-50
2022/07/31 02:18:36;;;;;;;;;;;21.80;48.80;;;;;;492109;240;1334;-51
2022/07/31 02:20:38;;;;;;;;;;;21.80;48.80;;;;;;491631;240;1190;-50
2022/07/31 02:22:39;;;;;;;;;;;21.70;48.70;;;;;;492034;240;1261;-50
2022/07/31 02:24:40;;;;;;;;;;;21.70;48.70;;;;;;491653;240;1178;-50
2022/07/31 02:26:42;;;;;;;;;;;21.80;48.80;;;;;;491655;240;1078;-50
2022/07/31 02:28:43;;;;;;;;;;;21.80;48.80;;;;;;491642;240;2248;-50
2022/07/31 02:30:44;;;;;;;;;;;21.80;48.80;;;;;;491685;240;1166;-50
2022/07/31 02:32:46;;;;;;;;;;;21.80;48.70;;;;;;491672;240;1098;-50
2022/07/31 02:34:47;;;;;;;;;;;21.80;48.70;;;;;;492114;240;1052;-50
2022/07/31 02:36:48;;;;;;;;;;;21.80;48.70;;;;;;491800;240;1060;-50
2022/07/31 02:38:50;;;;;;;;;;;21.80;48.80;;;;;;492082;240;2139;-50
2022/07/31 02:40:51;;;;;;;;;;;21.80;48.70;;;;;;492077;240;1216;-50
2022/07/31 02:42:52;;;;;;;;;;;21.80;48.80;;;;;;492076;240;1213;-50
2022/07/31 02:44:54;;;;;;;;;;;21.80;48.80;;;;;;491665;240;1218;-50
2022/07/31 02:46:56;;;;;;;;;;;21.70;48.80;;;;;;491749;240;1215;-50
2022/07/31 02:48:56;;;;;;;;;;;21.70;48.80;;;;;;492042;240;2386;-50
2022/07/31 02:50:58;;;;;;;;;;;21.70;48.80;;;;;;491965;240;1235;-50
2022/07/31 02:52:59;;;;;;;;;;;21.80;48.90;;;;;;491910;240;1190;-50
2022/07/31 02:55:00;;;;;;;;;;;21.80;48.80;;;;;;492089;240;1220;-50
2022/07/31 02:57:02;;;;;;;;;;;21.70;48.80;;;;;;491581;240;1444;-50
2022/07/31 02:59:03;;;;;;;;;;;21.70;48.70;;;;;;491842;240;1264;-50
2022/07/31 03:01:04;;;;;;;;;;;21.70;48.80;;;;;;491658;240;1231;-50
2022/07/31 03:03:06;;;;;;;;;;;21.80;48.80;;;;;;491700;240;1269;-50
2022/07/31 03:05:07;;;;;;;;;;;21.80;48.80;;;;;;491778;240;1141;-50
2022/07/31 03:07:08;;;;;;;;;;;21.80;48.80;;;;;;491747;240;1204;-50
2022/07/31 03:09:10;;;;;;;;;;;21.80;48.80;;;;;;492065;240;2191;-50
2022/07/31 03:11:11;;;;;;;;;;;21.70;48.80;;;;;;491971;240;1045;-50
2022/07/31 03:13:12;;;;;;;;;;;21.70;48.80;;;;;;492049;240;988;-50
2022/07/31 03:15:14;;;;;;;;;;;21.80;48.80;;;;;;492007;240;1297;-51
2022/07/31 03:17:15;;;;;;;;;;;21.70;48.80;;;;;;491665;240;1047;-50
2022/07/31 03:19:16;;;;;;;;;;;21.70;48.80;;;;;;492099;240;1273;-50
2022/07/31 03:21:18;;;;;;;;;;;21.80;48.90;;;;;;492105;240;1243;-50
2022/07/31 03:23:19;;;;;;;;;;;21.80;48.80;;;;;;492075;240;1230;-50
2022/07/31 03:25:20;;;;;;;;;;;21.80;48.80;;;;;;491647;240;1301;-50
2022/07/31 03:27:22;;;;;;;;;;;21.70;48.80;;;;;;491821;240;1234;-50
2022/07/31 03:29:23;;;;;;;;;;;21.70;48.80;;;;;;491624;240;2140;-50
2022/07/31 03:31:25;;;;;;;;;;;21.80;48.90;;;;;;491602;240;1243;-50
2022/07/31 03:33:26;;;;;;;;;;;21.70;48.80;;;;;;491635;240;1238;-50
2022/07/31 03:35:27;;;;;;;;;;;21.80;48.90;;;;;;491629;240;1205;-50
2022/07/31 03:37:29;;;;;;;;;;;21.70;48.80;;;;;;491895;240;1251;-50
2022/07/31 03:39:30;;;;;;;;;;;21.80;48.80;;;;;;492072;240;1046;-51
2022/07/31 03:41:31;;;;;;;;;;;21.70;48.80;;;;;;491758;240;1048;-50
2022/07/31 03:43:33;;;;;;;;;;;21.70;48.80;;;;;;492050;240;1010;-50
2022/07/31 03:45:34;;;;;;;;;;;21.80;48.80;;;;;;491966;240;1114;-50
2022/07/31 03:47:35;;;;;;;;;;;21.80;48.90;;;;;;491639;240;2224;-50
2022/07/31 03:49:37;;;;;;;;;;;21.70;48.80;;;;;;492070;240;1052;-50
2022/07/31 03:51:38;;;;;;;;;;;21.70;48.80;;;;;;491771;240;1065;-50
2022/07/31 03:53:39;;;;;;;;;;;21.70;48.80;;;;;;492087;240;1093;-49
2022/07/31 03:55:42;;;;;;;;;;;21.80;48.80;;;;;;492129;240;1041;-50
2022/07/31 03:57:43;;;;;;;;;;;21.80;48.90;;;;;;492105;240;1022;-50
2022/07/31 03:59:45;;;;;;;;;;;21.80;48.90;;;;;;492114;240;1093;-50
2022/07/31 04:01:46;;;;;;;;;;;21.70;48.80;;;;;;491748;240;1174;-50
2022/07/31 04:03:47;;;;;;;;;;;21.70;48.80;;;;;;491787;240;1243;-50
2022/07/31 04:05:49;;;;;;;;;;;21.70;48.90;;;;;;492118;240;1015;-50
2022/07/31 04:07:50;;;;;;;;;;;21.70;48.90;;;;;;491743;240;2192;-50
2022/07/31 04:09:51;;;;;;;;;;;21.70;48.80;;;;;;491633;240;1229;-50
2022/07/31 04:11:52;;;;;;;;;;;21.70;48.90;;;;;;491693;240;1103;-50
2022/07/31 04:13:54;;;;;;;;;;;21.70;48.80;;;;;;491998;240;1036;-50
2022/07/31 04:15:55;;;;;;;;;;;21.80;48.80;;;;;;491926;240;1174;-50
2022/07/31 04:17:57;;;;;;;;;;;21.70;48.80;;;;;;491605;240;1109;-49
2022/07/31 04:19:58;;;;;;;;;;;21.70;48.80;;;;;;491630;240;1066;-50
2022/07/31 04:21:59;;;;;;;;;;;21.80;48.90;;;;;;491904;240;1242;-50
2022/07/31 04:24:01;;;;;;;;;;;21.80;48.90;;;;;;491879;240;1015;-50
2022/07/31 04:26:02;;;;;;;;;;;21.70;48.80;;;;;;491634;240;1087;-50
2022/07/31 04:28:03;;;;;;;;;;;21.70;48.80;;;;;;491800;240;2116;-50
2022/07/31 04:30:05;;;;;;;;;;;21.70;48.80;;;;;;491659;240;1029;-50
2022/07/31 04:32:06;;;;;;;;;;;21.70;48.80;;;;;;491752;240;1154;-50
2022/07/31 04:34:07;;;;;;;;;;;21.70;48.80;;;;;;491724;240;1077;-50
2022/07/31 04:36:09;;;;;;;;;;;21.70;48.90;;;;;;491843;240;1334;-50
2022/07/31 04:38:11;;;;;;;;;;;21.70;48.90;;;;;;491902;240;1118;-50
2022/07/31 04:40:12;;;;;;;;;;;21.70;48.80;;;;;;491637;240;1241;-50
2022/07/31 04:42:14;;;;;;;;;;;21.70;48.90;;;;;;491731;240;1212;-50
2022/07/31 04:44:15;;;;;;;;;;;21.70;48.90;;;;;;491925;240;1167;-50
2022/07/31 04:46:16;;;;;;;;;;;21.70;48.90;;;;;;491602;240;1152;-50
2022/07/31 04:48:17;;;;;;;;;;;21.70;48.90;;;;;;491607;240;2194;-50
2022/07/31 04:50:19;;;;;;;;;;;21.80;48.90;;;;;;492035;240;1095;-50
2022/07/31 04:52:20;;;;;;;;;;;21.80;48.90;;;;;;491686;240;1251;-50
2022/07/31 04:54:21;;;;;;;;;;;21.70;48.90;;;;;;492038;240;1197;-50
2022/07/31 04:56:36;;;;;;;;;;;21.70;48.90;;;;;;491751;240;1123;-50
2022/07/31 04:58:36;;;;;;;;;;;21.70;48.90;;;;;;491625;240;2372;-50
2022/07/31 05:00:38;;;;;;;;;;;21.70;48.90;;;;;;491901;240;1068;-50
2022/07/31 05:02:40;;;;;;;;;;;21.70;48.90;;;;;;491655;240;1180;-50
2022/07/31 05:04:41;;;;;;;;;;;21.70;48.90;;;;;;491631;240;1024;-50
2022/07/31 05:06:42;;;;;;;;;;;21.70;48.90;;;;;;491576;240;1229;-50
2022/07/31 05:08:44;;;;;;;;;;;21.70;48.90;;;;;;491808;240;2192;-50
2022/07/31 05:13:04;;;;;;;;;;;21.70;48.90;;;;;;492075;242;1071;-49
2022/07/31 05:15:05;;;;;;;;;;;21.70;48.90;;;;;;492084;240;1039;-50
2022/07/31 05:17:07;;;;;;;;;;;21.70;48.90;;;;;;491815;240;1242;-50
2022/07/31 05:19:08;;;;;;;;;;;21.70;48.90;;;;;;491897;240;1063;-50
2022/07/31 05:21:09;;;;;;;;;;;21.70;48.90;;;;;;492121;240;1105;-50
2022/07/31 05:23:11;;;;;;;;;;;21.70;48.90;;;;;;491621;240;1069;-50
2022/07/31 05:25:12;;;;;;;;;;;21.70;48.90;;;;;;492100;240;1044;-50
2022/07/31 05:27:13;;;;;;;;;;;21.70;48.90;;;;;;491777;240;1236;-50
2022/07/31 05:29:15;;;;;;;;;;;21.70;48.90;;;;;;491977;240;2184;-50
2022/07/31 05:31:16;;;;;;;;;;;21.70;48.90;;;;;;491634;240;1044;-50
2022/07/31 05:33:17;;;;;;;;;;;21.70;49.00;;;;;;491714;240;1142;-50
2022/07/31 05:35:19;;;;;;;;;;;21.70;48.90;;;;;;491662;240;1234;-50
2022/07/31 05:37:20;;;;;;;;;;;21.70;48.90;;;;;;491717;240;1096;-50
2022/07/31 05:39:21;;;;;;;;;;;21.70;48.90;;;;;;491661;240;1090;-50
2022/07/31 05:41:23;;;;;;;;;;;21.70;48.90;;;;;;491624;240;1013;-50
2022/07/31 05:43:24;;;;;;;;;;;21.70;48.90;;;;;;492030;240;1060;-50
2022/07/31 05:45:25;;;;;;;;;;;21.70;48.90;;;;;;491677;240;1329;-50
2022/07/31 05:47:27;;;;;;;;;;;21.70;48.90;;;;;;491909;240;1168;-50
2022/07/31 05:49:28;;;;;;;;;;;21.70;48.90;;;;;;491618;240;2244;-49
2022/07/31 05:51:30;;;;;;;;;;;21.70;48.90;;;;;;492098;240;1310;-50
2022/07/31 05:53:31;;;;;;;;;;;21.70;48.90;;;;;;491777;240;1226;-50
2022/07/31 05:55:32;;;;;;;;;;;21.70;48.90;;;;;;491939;240;1697;-50
2022/07/31 05:57:34;;;;;;;;;;;21.70;48.90;;;;;;491653;240;1056;-50
2022/07/31 05:59:35;;;;;;;;;;;21.70;48.90;;;;;;492092;240;1247;-50
2022/07/31 06:01:36;;;;;;;;;;;21.70;49.00;;;;;;491933;240;1190;-50
2022/07/31 06:03:39;;;;;;;;;;;21.70;49.00;;;;;;491591;240;1259;-50
2022/07/31 06:05:39;;;;;;;;;;;21.70;48.90;;;;;;491815;240;1929;-50
2022/07/31 06:07:41;;;;;;;;;;;21.70;49.00;;;;;;491580;240;1471;-50
2022/07/31 06:09:42;;;;;;;;;;;21.70;48.90;;;;;;491618;240;2183;-50
2022/07/31 06:11:43;;;;;;;;;;;21.70;48.90;;;;;;492037;240;1219;-50
2022/07/31 06:13:45;;;;;;;;;;;21.70;49.00;;;;;;491625;240;1025;-50
2022/07/31 06:15:46;;;;;;;;;;;21.70;49.00;;;;;;491880;240;1161;-50
2022/07/31 06:17:47;;;;;;;;;;;21.70;48.90;;;;;;491890;240;1294;-50
2022/07/31 06:19:49;;;;;;;;;;;21.70;48.90;;;;;;491842;240;1033;-50
2022/07/31 06:21:50;;;;;;;;;;;21.70;48.90;;;;;;491803;240;1053;-50
2022/07/31 06:23:51;;;;;;;;;;;21.70;49.00;;;;;;492084;240;1080;-50
2022/07/31 06:25:53;;;;;;;;;;;21.70;49.00;;;;;;491605;240;1250;-50
2022/07/31 06:27:54;;;;;;;;;;;21.70;48.90;;;;;;491943;240;2361;-50
2022/07/31 06:29:56;;;;;;;;;;;21.70;48.90;;;;;;491579;240;2176;-50
2022/07/31 06:31:57;;;;;;;;;;;21.70;48.90;;;;;;491818;240;1967;-50
2022/07/31 06:33:58;;;;;;;;;;;21.70;48.90;;;;;;491743;240;1202;-50
2022/07/31 06:35:59;;;;;;;;;;;21.70;48.90;;;;;;491604;240;1084;-50
2022/07/31 06:38:01;;;;;;;;;;;21.70;49.00;;;;;;491570;240;1056;-50
2022/07/31 06:40:02;;;;;;;;;;;21.70;49.00;;;;;;491649;240;1136;-50
2022/07/31 06:42:03;;;;;;;;;;;21.70;49.00;;;;;;491646;240;1118;-50
2022/07/31 06:44:05;;;;;;;;;;;21.70;48.90;;;;;;491603;240;1034;-50
2022/07/31 06:46:06;;;;;;;;;;;21.70;48.90;;;;;;491807;240;1277;-50
2022/07/31 06:48:07;;;;;;;;;;;21.70;49.00;;;;;;491610;240;1142;-50
2022/07/31 06:50:09;;;;;;;;;;;21.70;49.00;;;;;;491706;240;2117;-50
2022/07/31 06:52:10;;;;;;;;;;;21.70;49.00;;;;;;491740;240;1043;-50
2022/07/31 06:54:11;;;;;;;;;;;21.70;49.00;;;;;;491626;240;1018;-50
2022/07/31 06:56:13;;;;;;;;;;;21.70;48.90;;;;;;492102;240;1322;-50
2022/07/31 06:58:14;;;;;;;;;;;21.70;48.90;;;;;;491889;240;1108;-50
2022/07/31 07:00:15;;;;;;;;;;;21.70;49.00;;;;;;491903;240;1029;-50
2022/07/31 07:02:17;;;;;;;;;;;21.70;49.00;;;;;;491687;240;1053;-50
2022/07/31 07:04:18;;;;;;;;;;;21.70;48.90;;;;;;491646;240;2009;-50
2022/07/31 07:06:19;;;;;;;;;;;21.70;48.90;;;;;;492070;240;1342;-50
2022/07/31 07:08:21;;;;;;;;;;;21.70;48.90;;;;;;492014;240;1046;-50
2022/07/31 07:10:22;;;;;;;;;;;21.70;48.90;;;;;;491767;240;2117;-50
2022/07/31 07:12:23;;;;;;;;;;;21.70;48.90;;;;;;492076;240;1030;-49
2022/07/31 07:14:25;;;;;;;;;;;21.70;48.90;;;;;;491633;240;1057;-50
2022/07/31 07:16:26;;;;;;;;;;;21.70;48.90;;;;;;492033;240;1345;-50
2022/07/31 07:18:28;;;;;;;;;;;21.70;48.90;;;;;;491903;240;1263;-50
2022/07/31 07:20:29;;;;;;;;;;;21.70;49.00;;;;;;491707;240;1024;-50
2022/07/31 07:22:31;;;;;;;;;;;21.70;49.00;;;;;;492053;240;1003;-50
2022/07/31 07:24:32;;;;;;;;;;;21.70;49.00;;;;;;492101;240;1051;-50
2022/07/31 07:26:33;;;;;;;;;;;21.70;48.90;;;;;;492072;240;1210;-50
2022/07/31 07:28:35;;;;;;;;;;;21.70;48.90;;;;;;491641;240;1214;-50
2022/07/31 07:30:36;;;;;;;;;;;21.70;49.00;;;;;;491625;240;2179;-50
2022/07/31 07:32:38;;;;;;;;;;;21.70;48.90;;;;;;491614;240;1171;-50
2022/07/31 07:34:39;;;;;;;;;;;21.70;48.90;;;;;;491671;240;1176;-50
2022/07/31 07:36:40;;;;;;;;;;;21.70;49.00;;;;;;492029;240;1328;-50
2022/07/31 07:38:42;;;;;;;;;;;21.70;49.00;;;;;;491586;240;1267;-50
2022/07/31 07:40:43;;;;;;;;;;;21.70;48.90;;;;;;491598;240;1285;-50
2022/07/31 07:42:44;;;;;;;;;;;21.70;48.90;;;;;;491796;240;1550;-50
2022/07/31 07:44:46;;;;;;;;;;;21.70;48.90;;;;;;491640;240;1274;-50
2022/07/31 07:46:47;;;;;;;;;;;21.70;48.90;;;;;;491575;240;1342;-50
2022/07/31 07:48:50;;;;;;;;;;;21.70;48.90;;;;;;491576;240;1238;-51
2022/07/31 07:50:51;;;;;;;;;;;21.70;48.90;;;;;;491627;240;2110;-49
2022/07/31 07:52:52;;;;;;;;;;;21.70;48.90;;;;;;491677;240;1062;-50
2022/07/31 07:54:53;;;;;;;;;;;21.70;48.90;;;;;;491633;240;1013;-50
2022/07/31 07:56:55;;;;;;;;;;;21.70;48.90;;;;;;492092;240;1230;-50
2022/07/31 07:58:56;;;;;;;;;;;21.70;48.90;;;;;;491877;240;1229;-50
2022/07/31 08:00:58;;;;;;;;;;;21.70;48.90;;;;;;491760;240;1218;-50
2022/07/31 08:02:59;;;;;;;;;;;21.70;48.90;;;;;;491761;240;1212;-50
2022/07/31 08:05:00;;;;;;;;;;;21.70;48.90;;;;;;491670;240;1177;-50
2022/07/31 08:07:02;;;;;;;;;;;21.70;48.90;;;;;;492012;240;1280;-50
2022/07/31 08:09:03;;;;;;;;;;;21.70;48.90;;;;;;491931;240;1357;-50
2022/07/31 08:11:04;;;;;;;;;;;21.70;48.90;;;;;;491674;240;2125;-50
2022/07/31 08:13:05;;;;;;;;;;;21.70;49.00;;;;;;492066;240;1202;-50
2022/07/31 08:15:07;;;;;;;;;;;21.70;49.00;;;;;;491873;240;1166;-50
2022/07/31 08:17:08;;;;;;;;;;;21.70;48.90;;;;;;491576;240;1264;-50
2022/07/31 08:19:09;;;;;;;;;;;21.70;48.90;;;;;;491912;240;1139;-50
2022/07/31 08:21:11;;;;;;;;;;;21.70;48.90;;;;;;492050;240;1078;-50
2022/07/31 08:23:12;;;;;;;;;;;21.70;49.00;;;;;;491934;240;1091;-50
2022/07/31 08:25:13;;;;;;;;;;;21.70;49.00;;;;;;491695;240;1056;-50
2022/07/31 08:27:24;;;;;;;;;;;21.70;49.00;;;;;;491544;240;1041;-50
2022/07/31 08:29:25;;;;;;;;;;;21.70;49.00;;;;;;491720;240;2148;-50
2022/07/31 08:31:26;;;;;;;;;;;21.70;48.90;;;;;;492013;240;1055;-50
2022/07/31 08:33:28;;;;;;;;;;;21.70;48.90;;;;;;491602;240;1169;-50
2022/07/31 08:35:29;;;;;;;;;;;21.70;48.90;;;;;;491674;240;1231;-50
2022/07/31 08:37:31;;;;;;;;;;;21.70;48.90;;;;;;491514;240;1076;-50
2022/07/31 08:39:32;;;;;;;;;;;21.70;48.90;;;;;;491541;240;1035;-50
2022/07/31 08:41:37;;;;;;;;;;;21.70;48.90;;;;;;492080;240;1136;-50
2022/07/31 08:43:35;;;;;;;;;;;21.70;48.90;;;;;;491659;240;2179;-50
2022/07/31 08:45:36;;;;;;;;;;;21.70;48.90;;;;;;491595;240;1020;-50
2022/07/31 08:47:37;;;;;;;;;;;21.70;49.00;;;;;;491586;240;1228;-50
2022/07/31 08:49:39;;;;;;;;;;;21.70;49.00;;;;;;491829;240;2188;-50
2022/07/31 08:51:40;;;;;;;;;;;21.70;49.00;;;;;;491963;240;1219;-50
2022/07/31 08:53:41;;;;;;;;;;;21.70;49.00;;;;;;492000;240;1264;-50
2022/07/31 08:55:43;;;;;;;;;;;21.70;49.00;;;;;;491774;240;1239;-50
2022/07/31 08:57:44;;;;;;;;;;;21.70;49.00;;;;;;491824;240;1204;-50
2022/07/31 08:59:45;;;;;;;;;;;21.70;48.90;;;;;;491596;240;1225;-50
2022/07/31 09:01:47;;;;;;;;;;;21.70;48.90;;;;;;492042;240;1333;-50
2022/07/31 09:03:48;;;;;;;;;;;21.70;48.90;;;;;;491607;240;1215;-50
2022/07/31 09:05:49;;;;;;;;;;;21.70;48.90;;;;;;491670;240;1265;-51
2022/07/31 09:07:51;;;;;;;;;;;21.70;48.90;;;;;;491785;240;1093;-50
2022/07/31 09:09:52;;;;;;;;;;;21.70;48.90;;;;;;492079;240;2192;-50
2022/07/31 09:11:54;;;;;;;;;;;21.70;48.90;;;;;;491795;240;1079;-50
2022/07/31 09:13:55;;;;;;;;;;;21.70;48.90;;;;;;492067;240;1207;-50
2022/07/31 09:15:56;;;;;;;;;;;21.70;48.90;;;;;;491589;240;1360;-50
2022/07/31 09:17:58;;;;;;;;;;;21.70;48.90;;;;;;491686;240;1023;-50
2022/07/31 09:19:59;;;;;;;;;;;21.70;49.00;;;;;;491609;240;1979;-50
2022/07/31 09:22:00;;;;;;;;;;;21.70;49.00;;;;;;491587;240;1061;-50
2022/07/31 09:24:02;;;;;;;;;;;21.70;48.90;;;;;;491626;240;1042;-50
2022/07/31 09:26:03;;;;;;;;;;;21.70;48.90;;;;;;491840;240;1339;-51
2022/07/31 09:28:04;;;;;;;;;;;21.70;49.00;;;;;;491920;240;1081;-50
2022/07/31 09:30:06;;;;;;;;;;;21.60;49.10;;;;;;491805;240;2187;-50
2022/07/31 09:32:07;;;;;;;;;;;21.50;49.30;;;;;;491982;240;1208;-50
2022/07/31 09:34:08;;;;;;;;;;;21.50;49.40;;;;;;491664;240;1037;-50
2022/07/31 09:36:10;;;;;;;;;;;21.50;49.40;;;;;;491636;240;1336;-50
2022/07/31 09:38:11;;;;;;;;;;;21.50;49.50;;;;;;491639;240;1003;-50
2022/07/31 09:40:12;;;;;;;;;;;21.50;49.60;;;;;;491606;240;1049;-50
2022/07/31 09:42:14;;;;;;;;;;;21.40;49.50;;;;;;491955;240;1013;-50
2022/07/31 09:44:15;;;;;;;;;;;21.50;49.60;;;;;;491799;240;1052;-50
2022/07/31 09:46:16;;;;;;;;;;;21.50;49.60;;;;;;492006;240;1775;-50
2022/07/31 09:48:18;;;;;;;;;;;21.40;49.70;;;;;;491589;240;1063;-49
2022/07/31 09:50:19;;;;;;;;;;;21.40;49.70;;;;;;491882;240;2193;-50
2022/07/31 09:52:20;;;;;;;;;;;21.50;49.70;;;;;;492056;240;1201;-50
2022/07/31 09:54:22;;;;;;;;;;;21.40;49.70;;;;;;492083;240;1031;-50
2022/07/31 09:56:23;;;;;;;;;;;21.40;49.70;;;;;;492070;240;1390;-50
2022/07/31 09:58:24;;;;;;;;;;;21.40;49.70;;;;;;491679;240;1038;-50
2022/07/31 10:00:26;;;;;;;;;;;21.40;49.70;;;;;;491642;240;1019;-50
2022/07/31 10:02:27;;;;;;;;;;;21.40;49.70;;;;;;491768;240;1024;-50
2022/07/31 10:04:28;;;;;;;;;;;21.40;49.70;;;;;;491943;240;1041;-50
2022/07/31 10:06:30;;;;;;;;;;;21.40;49.70;;;;;;491615;240;1318;-50
2022/07/31 10:08:31;;;;;;;;;;;21.40;49.70;;;;;;491610;240;973;-50
2022/07/31 10:10:32;;;;;;;;;;;21.40;49.80;;;;;;491655;240;2195;-51
2022/07/31 10:12:34;;;;;;;;;;;21.40;49.80;;;;;;492100;240;1193;-50
2022/07/31 10:14:38;;;;;;;;;;;21.40;49.90;;;;;;492115;240;1036;-50
2022/07/31 10:16:36;;;;;;;;;;;21.40;49.90;;;;;;491929;240;1519;-50
2022/07/31 10:18:38;;;;;;;;;;;21.40;49.90;;;;;;491648;240;1277;-50
2022/07/31 10:20:39;;;;;;;;;;;21.40;49.90;;;;;;491726;240;1634;-50
2022/07/31 10:22:42;;;;;;;;;;;21.40;50.00;;;;;;491926;240;1176;-51
2022/07/31 10:24:42;;;;;;;;;;;21.40;50.00;;;;;;492135;240;2206;-50
2022/07/31 10:26:43;;;;;;;;;;;21.40;50.00;;;;;;491827;240;1252;-50
2022/07/31 10:28:44;;;;;;;;;;;21.40;50.00;;;;;;491591;240;1128;-50
2022/07/31 10:30:46;;;;;;;;;;;21.40;50.00;;;;;;491999;240;2199;-50
2022/07/31 10:32:47;;;;;;;;;;;21.40;50.00;;;;;;491677;240;1204;-50
2022/07/31 10:34:48;;;;;;;;;;;21.40;50.00;;;;;;491629;240;1219;-50
2022/07/31 10:36:50;;;;;;;;;;;21.40;50.00;;;;;;491644;240;1397;-50
2022/07/31 10:38:51;;;;;;;;;;;21.40;50.00;;;;;;492085;240;1237;-49
2022/07/31 10:40:52;;;;;;;;;;;21.40;50.00;;;;;;491634;240;1122;-50
2022/07/31 10:42:54;;;;;;;;;;;21.40;50.10;;;;;;492062;240;1044;-50
2022/07/31 10:44:55;;;;;;;;;;;21.40;50.00;;;;;;491640;240;1002;-50
2022/07/31 10:46:57;;;;;;;;;;;21.40;50.00;;;;;;491700;240;1182;-50
2022/07/31 10:48:58;;;;;;;;;;;21.40;50.10;;;;;;492044;240;1296;-50
2022/07/31 10:51:00;;;;;;;;;;;21.30;50.10;;;;;;491863;240;2121;-50
2022/07/31 10:53:01;;;;;;;;;;;21.40;50.20;;;;;;492002;240;1249;-50
2022/07/31 10:55:02;;;;;;;;;;;21.30;50.10;;;;;;491593;240;1195;-50
2022/07/31 10:57:04;;;;;;;;;;;21.40;50.30;;;;;;491699;240;1173;-50
2022/07/31 10:59:05;;;;;;;;;;;21.40;50.30;;;;;;491593;240;1194;-50
2022/07/31 11:01:06;;;;;;;;;;;21.30;50.20;;;;;;491828;240;1223;-50
2022/07/31 11:03:08;;;;;;;;;;;21.30;50.10;;;;;;492103;240;1183;-50
2022/07/31 11:05:09;;;;;;;;;;;21.40;50.20;;;;;;491800;240;1203;-50
2022/07/31 11:07:10;;;;;;;;;;;21.40;50.20;;;;;;491663;240;1207;-51
2022/07/31 11:09:12;;;;;;;;;;;21.30;50.20;;;;;;492078;240;1202;-50
2022/07/31 11:11:13;;;;;;;;;;;21.40;50.20;;;;;;491606;240;2129;-50
2022/07/31 11:13:16;;;;;;;;;;;21.30;50.20;;;;;;491797;240;1207;-50
2022/07/31 11:15:16;;;;;;;;;;;21.30;50.30;;;;;;491700;240;2136;-50
2022/07/31 11:17:17;;;;;;;;;;;21.30;50.20;;;;;;492075;240;1182;-50
2022/07/31 11:19:18;;;;;;;;;;;21.30;50.30;;;;;;492135;240;1018;-50
2022/07/31 11:21:20;;;;;;;;;;;21.30;50.30;;;;;;491955;240;1511;-50
2022/07/31 11:23:21;;;;;;;;;;;21.40;50.30;;;;;;491586;240;1415;-50
2022/07/31 11:25:22;;;;;;;;;;;21.30;50.30;;;;;;491979;240;1104;-50
2022/07/31 11:27:24;;;;;;;;;;;21.40;50.30;;;;;;492103;240;1239;-50
2022/07/31 11:29:25;;;;;;;;;;;21.40;50.30;;;;;;491696;240;1037;-50
2022/07/31 11:31:26;;;;;;;;;;;21.40;50.30;;;;;;492104;240;2172;-50
2022/07/31 11:33:28;;;;;;;;;;;21.40;50.30;;;;;;492092;240;1193;-50
2022/07/31 11:35:29;;;;;;;;;;;21.30;50.30;;;;;;491975;240;1200;-50
2022/07/31 11:37:31;;;;;;;;;;;21.40;50.40;;;;;;491572;240;1218;-51
2022/07/31 11:39:32;;;;;;;;;;;21.30;50.40;;;;;;491786;240;1194;-50
2022/07/31 11:41:33;;;;;;;;;;;21.40;50.40;;;;;;491561;240;1371;-50
2022/07/31 11:43:36;;;;;;;;;;;21.40;50.30;;;;;;491736;240;1228;-50
2022/07/31 11:45:36;;;;;;;;;;;21.30;50.30;;;;;;491566;240;1227;-50
2022/07/31 11:47:37;;;;;;;;;;;21.40;50.30;;;;;;491880;240;1521;-50
2022/07/31 11:49:39;;;;;;;;;;;21.30;50.30;;;;;;491798;240;1139;-50
2022/07/31 11:51:40;;;;;;;;;;;21.40;50.40;;;;;;491575;240;2116;-50
2022/07/31 11:53:42;;;;;;;;;;;21.30;50.40;;;;;;491733;240;1069;-50
2022/07/31 11:55:43;;;;;;;;;;;21.40;50.40;;;;;;491593;240;1810;-50
2022/07/31 11:57:44;;;;;;;;;;;21.30;50.40;;;;;;491589;240;1046;-50
2022/07/31 11:59:45;;;;;;;;;;;21.30;50.40;;;;;;491614;240;1071;-50